Weather Data

Pearl Creek Farm: 8878 N Farm Road 75, Walnut Grove MO 65770

<== Previous Day (Saturday 26 Jan 2013) | Next Day (Monday 28 Jan 2013) ==>

Summary Precipitation Data For Sunday 27 January 2013

ElementValueUnits
Precipitation0.01"
NotesGround was wet and it was windy from rain passing through.
SourcePearl Creek Farm

Summary Temperature Data For Sunday 27 January 2013

ElementValueUnits
High Temperature56 oF
Low Temperature43 oF
Average Temperature50 oF
High Humidity87 %
Low Humidity54 %
Average Humidity79 %
SourcePearl Creek Farm

Detail Temperature Data For Sunday 27 January 2013

Date / TimeTemp (F)RH (%)Dew Pt (F)Report Date / TimeSource
2013-01-27 00:00:00 45 54 29.2 2013-01-27 10:51:56 Pearl Creek Farm
2013-01-27 00:30:00 45 54 29.2 2013-01-27 10:51:56 Pearl Creek Farm
2013-01-27 01:00:00 45 59 31.4 2013-01-27 10:51:56 Pearl Creek Farm
2013-01-27 01:30:00 44 63 32.2 2013-01-27 10:51:56 Pearl Creek Farm
2013-01-27 02:00:00 44 66 33.4 2013-01-27 10:51:56 Pearl Creek Farm
2013-01-27 02:30:00 44 71 35.2 2013-01-27 10:51:56 Pearl Creek Farm
2013-01-27 03:00:00 43 73 35.0 2013-01-27 10:51:56 Pearl Creek Farm
2013-01-27 03:30:00 43 73 35.0 2013-01-27 10:51:56 Pearl Creek Farm
2013-01-27 04:00:00 43 75 35.6 2013-01-27 10:51:56 Pearl Creek Farm
2013-01-27 04:30:00 43 78 36.6 2013-01-27 10:51:56 Pearl Creek Farm
2013-01-27 05:00:00 43 79 37.0 2013-01-27 10:51:56 Pearl Creek Farm
2013-01-27 05:30:00 43 79 36.8 2013-01-27 10:51:56 Pearl Creek Farm
2013-01-27 06:00:00 43 79 36.8 2013-01-27 10:51:56 Pearl Creek Farm
2013-01-27 06:30:00 43 79 36.8 2013-01-27 10:51:56 Pearl Creek Farm
2013-01-27 07:00:00 43 79 36.8 2013-01-27 10:51:56 Pearl Creek Farm
2013-01-27 07:30:00 43 79 37.0 2013-01-27 10:51:56 Pearl Creek Farm
2013-01-27 08:00:00 44 79 37.9 2013-01-27 10:51:56 Pearl Creek Farm
2013-01-27 08:30:00 44 81 38.6 2013-01-27 10:51:56 Pearl Creek Farm
2013-01-27 09:00:00 45 81 39.5 2013-01-27 10:51:56 Pearl Creek Farm
2013-01-27 09:30:00 45 80 39.2 2013-01-27 10:51:56 Pearl Creek Farm
2013-01-27 10:00:00 46 80 40.0 2013-01-27 10:51:56 Pearl Creek Farm
2013-01-27 10:30:00 47 80 41.0 2013-01-27 10:51:56 Pearl Creek Farm
2013-01-27 11:00:00 53 72 44.2 2013-05-04 11:51:29 Pearl Creek Farm
2013-01-27 11:30:00 50 80 43.9 2013-05-04 11:51:29 Pearl Creek Farm
2013-01-27 12:00:00 51 82 45.5 2013-05-04 11:51:29 Pearl Creek Farm
2013-01-27 12:30:00 54 80 47.8 2013-05-04 11:51:29 Pearl Creek Farm
2013-01-27 13:00:00 55 78 48.1 2013-05-04 11:51:29 Pearl Creek Farm
2013-01-27 13:30:00 55 80 49.0 2013-05-04 11:51:29 Pearl Creek Farm
2013-01-27 14:00:00 54 81 48.1 2013-05-04 11:51:29 Pearl Creek Farm
2013-01-27 14:30:00 54 82 48.6 2013-05-04 11:51:29 Pearl Creek Farm
2013-01-27 15:00:00 55 82 49.6 2013-05-04 11:51:29 Pearl Creek Farm
2013-01-27 15:30:00 55 82 49.6 2013-05-04 11:51:29 Pearl Creek Farm
2013-01-27 16:00:00 55 83 49.8 2013-05-04 11:51:29 Pearl Creek Farm
2013-01-27 16:30:00 55 82 49.4 2013-05-04 11:51:29 Pearl Creek Farm
2013-01-27 17:00:00 55 82 49.4 2013-05-04 11:51:29 Pearl Creek Farm
2013-01-27 17:30:00 54 83 49.0 2013-05-04 11:51:29 Pearl Creek Farm
2013-01-27 18:00:00 53 84 48.1 2013-05-04 11:51:29 Pearl Creek Farm
2013-01-27 18:30:00 53 85 48.6 2013-05-04 11:51:29 Pearl Creek Farm
2013-01-27 19:00:00 53 86 48.8 2013-05-04 11:51:29 Pearl Creek Farm
2013-01-27 19:30:00 54 86 49.9 2013-05-04 11:51:29 Pearl Creek Farm
2013-01-27 20:00:00 54 86 49.9 2013-05-04 11:51:29 Pearl Creek Farm
2013-01-27 20:30:00 54 87 50.1 2013-05-04 11:51:29 Pearl Creek Farm
2013-01-27 21:00:00 55 87 51.2 2013-05-04 11:51:29 Pearl Creek Farm
2013-01-27 21:30:00 56 87 52.0 2013-05-04 11:51:29 Pearl Creek Farm
2013-01-27 22:00:00 56 86 51.9 2013-05-04 11:51:29 Pearl Creek Farm
2013-01-27 22:30:00 56 86 51.9 2013-05-04 11:51:29 Pearl Creek Farm
2013-01-27 23:00:00 56 86 51.7 2013-05-04 11:51:29 Pearl Creek Farm
2013-01-27 23:30:00 55 86 50.7 2013-05-04 11:51:29 Pearl Creek Farm

A total of 48 rows are displayed.